Impacts TAF Board INFO
FOR SITUATIONAL AWARENESS. NOT TO BE USED FOR FLIGHT PLANNING PURPOSES.
IDs:

KCVG - Cincinnati Intl, KY, US

Issued at 0539 UTC 24 Nov 2017
Updated at 0720 UTC 24 Nov 2017
Potential Impact None Slight Moderate High
Time0652Z 24/08Z 24/09Z 24/10Z 24/11Z 24/12Z 24/13Z 24/14Z 24/15Z 24/16Z 24/17Z 24/18Z 24/19Z 24/20Z>>
Type OBS PRVL PRVL PRVL PRVL PRVL PRVL PRVL PRVL PRVL PRVL PRVL PRVL PRVL
VIS 10 >6 >6 >6 >6 >6 >6 >6 >6 >6 >6 >6 >6 >6
CIG -- -- -- -- -- -- -- -- -- -- -- -- -- --
Cover CLR SKC SKC SKC SKC SKC SKC SKC SKC SKC SKC SCT SCT SCT
FltCat VFR VFR VFR VFR VFR VFR VFR VFR VFR VFR VFR VFR VFR VFR
WX -- -- -- -- -- -- -- -- -- -- -- -- -- --
WDir 180 180 180 180 180 180 180 180 180 180 180 200 200 200
WSpd 4 5 5 5 5 5 5 5 5 5 5 10 10 10
WGst -- -- -- -- -- -- -- -- -- -- -- 16 16 16

Raw TAF
KCVG 240539Z 2406/2512 18005KT P6SM SKC
  FM241800 20010G16KT P6SM SCT250
  FM250600 22011KT P6SM BKN150


Raw METAR
KCVG 240652Z 18004KT 10SM CLR M02/M03 A3000 RMK AO2 SLP163 T10171028
KCVG 240552Z 19003KT 10SM CLR M01/M04 A3000 RMK AO2 SLP164 T10111039 10033 21011 58006
KCVG 240452Z 17006KT 10SM CLR 00/M04 A3000 RMK AO2 SLP165 T00001039 400721056

METAR Board
Radar Display
Forecast Discussion

FOR SITUATIONAL AWARENESS. NOT TO BE USED FOR FLIGHT PLANNING PURPOSES.